Latest Coastal Weather Observations for Newcastle Nobbys

IDN60701

Issued at 9:41 am EDT Tuesday 24 October 2017 (issued every 10 minutes, with the page automatically refreshed every 10 minutes)

About coastal observations | Map of coastal stations | Coastal observations for NSW | Marine services | Other Formats
Station Details ID: 061055 Name: NEWCASTLE NOBBYS SIGNAL STATION AWS Lat: -32.92 Lon: 151.80 Height: 33.0 m
Data from the previous 72 hours. | See also: Recent months at Newcastle Nobbys
Date/Time
EDT
Temp
°C
Wind Pressure Rain since
9am
mm
Weather Cloud Vis
km
Sea
Height
m
Swell
Dir  Spd
kts
Gust
kts
hPa Trend Height
m
Period
s
Dir
24/09:30am 18.4 NNW 8 10 - - 0.0 - - - - - - -
24/09:00am 16.9 NW 7 10 - - 0.0 - - - - - - -
24/08:30am 15.6 NNW 9 11 - - 0.0 - - - - - - -
24/08:00am 14.5 NNW 7 10 - - 0.0 - - - - - - -
24/07:30am 13.6 NW 7 9 - - 0.0 - - - - - - -
24/07:00am 13.1 NW 6 7 - - 0.0 - - - - - - -
24/06:30am 13.1 NW 5 6 - - 0.0 - - - - - - -
24/06:00am 13.2 NW 4 6 - - 0.0 - - - - - - -
24/05:30am 13.3 NW 4 6 - - 0.0 - - - - - - -
24/05:00am 14.2 NNW 3 5 - - 0.0 - - - - - - -
24/04:30am 14.1 N 6 7 - - 0.0 - - - - - - -
24/04:00am 14.4 N 6 7 - - 0.0 - - - - - - -
24/03:30am 14.7 N 6 7 - - 0.0 - - - - - - -
24/03:00am 14.7 N 5 7 - - 0.0 - - - - - - -
24/02:30am 15.2 N 5 7 - - 0.0 - - - - - - -
24/02:00am 15.4 N 5 6 - - 0.0 - - - - - - -
24/01:30am 15.6 NNE 5 7 - - 0.0 - - - - - - -
24/01:00am 15.9 N 6 7 - - 0.0 - - - - - - -
24/12:30am 16.2 NNW 4 6 - - 0.0 - - - - - - -
24/12:00am 16.1 NNW 4 5 - - 0.0 - - - - - - -
 
Date/Time
EDT
Temp
°C
Wind Pressure Rain since
9am
mm
Weather Cloud Vis
km
Sea
Height
m
Swell
Dir  Spd
kts
Gust
kts
hPa Trend Height
m
Period
s
Dir
23/11:30pm 16.2 N 5 7 - - 0.0 - - - - - - -
23/11:00pm 16.2 NNE 5 6 - - 0.0 - - - - - - -
23/10:30pm 16.9 NNE 6 8 - - 0.0 - - - - - - -
23/10:00pm 16.8 NNE 6 7 - - 0.0 - - - - - - -
23/09:30pm 17.0 NNE 5 6 - - 0.0 - - - - - - -
23/09:00pm 17.3 NNE 5 6 - - 0.0 - - - - - - -
23/08:30pm 17.4 NE 5 6 - - 0.0 - - - - - - -
23/08:00pm 17.5 ENE 5 7 - - 0.0 - - - - - - -
23/07:30pm 17.4 ESE 6 7 - - 0.0 - - - - - - -
23/07:00pm 17.8 ESE 7 9 - - 0.0 - - - - - - -
23/06:30pm 18.3 SE 8 10 - - 0.0 - - - - - - -
23/06:00pm 18.5 SE 10 12 - - 0.0 - - - - - - -
23/05:30pm 18.5 SSE 12 13 - - 0.0 - - - - - - -
23/05:00pm 18.6 SSE 12 14 - - 0.0 - - - - - - -
23/04:30pm 18.7 SSE 13 16 - - 0.0 - - - - - - -
23/04:00pm 18.9 SSE 13 15 - - 0.0 - - - - - - -
23/03:30pm 19.0 SSE 12 13 - - 0.0 - - - - - - -
23/03:00pm 18.7 SSE 13 14 - - 0.0 - - - - - - -
23/02:30pm 18.6 SSE 13 15 - - 0.0 - - - - - - -
23/02:00pm 18.2 S 13 15 - - 0.0 - - - - - - -
23/01:30pm 18.4 S 14 17 - - 0.0 - - - - - - -
23/01:00pm 18.8 S 15 18 - - 0.0 - - - - - - -
23/12:30pm 18.3 SSW 14 17 - - 0.0 - - - - - - -
23/12:00pm 18.0 S 14 17 - - 0.0 - - - - - - -
23/11:30am 17.8 S 12 16 - - 0.0 - - - - - - -
23/11:00am 17.3 SSW 14 17 - - 0.0 - - - - - - -
23/10:30am 17.0 S 15 18 - - 0.0 - - - - - - -
23/10:00am 16.9 SSW 11 14 - - 0.0 - - - - - - -
23/09:30am 16.6 SSW 10 13 - - 0.0 - - - - - - -
23/09:00am 16.2 SSW 12 15 - - 14.2 - - - - - - -
23/08:30am 15.7 SSW 9 14 - - 14.2 - - - - - - -
23/08:00am 15.0 SW 6 8 - - 14.2 - - - - - - -
23/07:30am 14.5 W 4 6 - - 14.2 - - - - - - -
23/07:00am 13.7 W 5 6 - - 14.2 - - - - - - -
23/06:30am 13.5 WNW 5 7 - - 14.2 - - - - - - -
23/06:00am 13.4 W 5 7 - - 14.2 Recent precip. - - - - - -
23/05:30am 13.0 WNW 3 4 - - 14.2 - - - - - - -
23/05:00am 13.0 WNW 6 8 - - 14.0 - - - - - - -
23/04:30am 13.0 WNW 7 8 - - 14.0 - - - - - - -
23/04:00am 12.9 WNW 8 9 - - 14.0 - - - - - - -
23/03:30am 13.2 WNW 8 9 - - 14.0 - - - - - - -
23/03:00am 13.1 WSW 7 9 - - 14.0 Recent precip. - - - - - -
23/02:30am 13.1 WSW 7 8 - - 13.8 - - - - - - -
23/02:00am 13.2 WNW 8 9 - - 13.8 - - - - - - -
23/01:30am 13.5 WSW 4 6 - - 11.2 - - - - - - -
23/01:00am 13.5 SW 8 13 - - 9.0 - - - - - - -
23/12:31am 14.0 SW 14 27 - - 7.6 - - - - - - -
23/12:30am 14.0 SW 13 21 - - 7.6 - - - - - - -
23/12:00am 16.1 NE 3 4 - - 5.2 Rain - - - - - -
 
Date/Time
EDT
Temp
°C
Wind Pressure Rain since
9am
mm
Weather Cloud Vis
km
Sea
Height
m
Swell
Dir  Spd
kts
Gust
kts
hPa Trend Height
m
Period
s
Dir
22/11:30pm 16.1 E 6 7 - - 3.8 - - - - - - -
22/11:00pm 16.7 E 9 11 - - 3.4 - - - - - - -
22/10:30pm 16.7 E 11 13 - - 3.4 - - - - - - -
22/10:00pm 16.6 E 12 14 - - 3.4 - - - - - - -
22/09:30pm 16.6 ESE 15 17 - - 3.4 - - - - - - -
22/09:00pm 16.2 E 11 13 - - 2.8 Rain - - - - - -
22/08:30pm 17.2 ESE 12 13 - - 0.0 - - - - - - -
22/08:00pm 17.1 ESE 11 13 - - 0.0 - - - - - - -
22/07:30pm 17.0 ESE 11 13 - - 0.0 - - - - - - -
22/07:00pm 17.1 SE 13 15 - - 0.0 - - - - - - -
22/06:30pm 17.2 SE 15 17 - - 0.0 - - - - - - -
22/06:00pm 17.4 SE 13 17 - - 0.0 - - - - - - -
22/05:30pm 17.6 SE 12 13 - - 0.0 - - - - - - -
22/05:00pm 17.7 SE 13 14 - - 0.0 - - - - - - -
22/04:30pm 17.9 ESE 14 16 - - 0.0 - - - - - - -
22/04:00pm 18.1 ESE 14 16 - - 0.0 - - - - - - -
22/03:30pm 18.0 ESE 15 17 - - 0.0 - - - - - - -
22/03:00pm 18.4 ESE 15 17 - - 0.0 - - - - - - -
22/02:30pm 18.9 ESE 13 15 - - 0.0 - - - - - - -
22/02:00pm 19.7 ESE 12 14 - - 0.0 - - - - - - -
22/01:30pm 19.0 ESE 11 13 - - 0.0 - - - - - - -
22/01:00pm 18.9 ESE 10 11 - - 0.0 - - - - - - -
22/12:30pm 19.1 ESE 9 11 - - 0.0 - - - - - - -
22/12:00pm 19.3 ESE 7 8 - - 0.0 - - - - - - -
22/11:30am 18.8 SE 4 6 - - 0.0 - - - - - - -
22/11:00am 19.5 SE 5 5 - - 0.0 - - - - - - -
22/10:30am 19.1 SE 5 5 - - 0.0 - - - - - - -
22/10:00am 18.3 SE 4 5 - - 0.0 - - - - - - -
22/09:30am 18.7 E 2 4 - - 0.0 - - - - - - -
22/09:00am 16.3 N 2 3 - - 0.0 - - - - - - -
22/08:30am 15.3 NW 3 4 - - 0.0 - - - - - - -
22/08:00am 13.8 NW 3 5 - - 0.0 - - - - - - -
22/07:30am 12.5 WNW 6 7 - - 0.0 - - - - - - -
22/07:00am 11.7 WNW 6 8 - - 0.0 - - - - - - -
22/06:30am 11.6 WNW 4 5 - - 0.0 - - - - - - -
22/06:00am 11.4 WNW 4 5 - - 0.0 - - - - - - -
22/05:30am 11.4 WNW 5 6 - - 0.0 - - - - - - -
22/05:00am 11.8 NW 6 7 - - 0.0 - - - - - - -
22/04:30am 12.5 NW 5 6 - - 0.0 - - - - - - -
22/04:00am 12.7 WNW 4 5 - - 0.0 - - - - - - -
22/03:30am 12.9 NW 4 5 - - 0.0 - - - - - - -
22/03:00am 13.3 W 5 6 - - 0.0 - - - - - - -
22/02:30am 13.4 WNW 5 6 - - 0.0 - - - - - - -
22/02:00am 14.0 W 5 6 - - 0.0 - - - - - - -
22/01:30am 13.9 W 4 5 - - 0.0 - - - - - - -
22/01:00am 13.9 W 5 6 - - 0.0 - - - - - - -
22/12:30am 14.6 W 6 7 - - 0.0 - - - - - - -
22/12:00am 15.4 SW 4 5 - - 0.0 - - - - - - -
 
Date/Time
EDT
Temp
°C
Wind Pressure Rain since
9am
mm
Weather Cloud Vis
km
Sea
Height
m
Swell
Dir  Spd
kts
Gust
kts
hPa Trend Height
m
Period
s
Dir
21/11:30pm 16.2 SSW 5 6 - - 0.0 - - - - - - -
21/11:00pm 16.1 SSE 8 9 - - 0.0 - - - - - - -
21/10:30pm 16.1 SSE 8 10 - - 0.0 - - - - - - -
21/10:00pm 15.4 WSW 4 5 - - 0.0 - - - - - - -
21/09:30pm 15.3 SW 3 5 - - 0.0 - - - - - - -
21/09:00pm 15.4 WSW 5 6 - - 0.0 - - - - - - -
21/08:30pm 15.4 SW 5 9 - - 0.0 - - - - - - -
21/08:00pm 16.1 SSW 9 11 - - 0.0 - - - - - - -
21/07:30pm 16.5 S 13 15 - - 0.0 - - - - - - -
21/07:00pm 16.2 SSW 10 13 - - 0.0 - - - - - - -
21/06:30pm 16.0 SSW 10 14 - - 0.0 - - - - - - -
21/06:00pm 15.7 SSW 6 9 - - 0.0 - - - - - - -
21/05:30pm 15.1 SW 11 15 - - 0.0 - - - - - - -
21/05:00pm 15.2 SSW 15 20 - - 0.0 - - - - - - -
21/04:30pm 16.0 SSW 13 18 - - 0.0 - - - - - - -
21/04:00pm 15.5 SSW 14 18 - - 0.0 - - - - - - -
21/03:30pm 15.7 SSW 14 19 - - 0.0 - - - - - - -
21/03:00pm 16.4 SSW 17 21 - - 0.0 - - - - - - -
21/02:30pm 16.6 SSW 16 21 - - 0.0 - - - - - - -
21/02:00pm 16.8 SSW 18 23 - - 0.0 - - - - - - -
21/01:30pm 16.8 SSW 17 24 - - 0.0 - - - - - - -
21/01:00pm 16.6 SSW 16 22 - - 0.0 - - - - - - -
21/12:30pm 15.9 SSW 20 27 - - 0.0 - - - - - - -
21/12:00pm 16.4 SSW 17 24 - - 0.0 - - - - - - -
21/11:30am 16.4 SSW 16 23 - - 0.0 - - - - - - -
21/11:00am 15.3 SSW 17 25 - - 0.0 - - - - - - -
21/10:30am 15.3 SSW 17 23 - - 0.0 - - - - - - -
21/10:00am 13.8 SSE 11 16 - - 0.0 - - - - - - -

Other Formats:

Comma delimited format used in spreadsheet applications
http://www.bom.gov.au/fwo/IDN60701/IDN60701.94774.axf

JavaScript Object Notation format (JSON) in row-major order
http://www.bom.gov.au/fwo/IDN60701/IDN60701.94774.json